Flight Track Log - Related Links

Times and Time Zones

All times are in EDT time to prevent confusion due to time zone crossing. See the UAL878 flight status page for this flight to view local times or setup timezone preferences in your user account.

Time Position Orientation Groundspeed Altitude Reporting Facility
EDT Latitude Longitude Course Direction KTS MPH feet Rate Location/Type
Mon 08:25:47 AM 31.0050 121.9180 146° Southeast 248 285 4,200  Level FlightAware ADS-B
Mon 08:26:12 AM 30.9810 121.9380 144° Southeast 254 292 5,100 1,800 Climbing FlightAware ADS-B
Mon 08:26:27 AM 30.9700 121.9550 127° Southeast 270 311 5,400 1,200 Climbing FlightAware ADS-B
Mon 08:26:42 AM 30.9660 121.9760 103° East 279 321 5,700 600 Climbing FlightAware ADS-B
Mon 08:27:07 AM 30.9690 122.0140 85° East 285 328 5,800 327 Climbing FlightAware ADS-B
Mon 08:27:37 AM 30.9770 122.0600 79° East 290 334 6,000 800 Climbing FlightAware ADS-B
Mon 08:28:07 AM 30.9830 122.1080 82° East 312 359 6,600 1,050 Climbing FlightAware ADS-B
Mon 08:28:17 AM 30.9850 122.1230 81° East 321 369 6,700 1,500 Climbing FlightAware ADS-B
Mon 08:28:47 AM 30.9920 122.1770 81° East 332 382 7,600 1,800 Climbing FlightAware ADS-B
Mon 08:29:17 AM 30.9980 122.2260 82° East 333 383 8,500 1,900 Climbing FlightAware ADS-B
Mon 08:29:47 AM 31.0010 122.2840 87° East 340 391 9,500 1,680 Climbing FlightAware ADS-B
Mon 08:30:07 AM 31.0010 122.3220 90° East 349 402 9,900 943 Climbing FlightAware ADS-B
Mon 08:30:57 AM 31.0010 122.4180 90° East 386 444 10,600 1,267 Climbing FlightAware ADS-B
Mon 08:31:37 AM 31.0010 122.5070 90° East 400 460 11,800 1,950 Climbing FlightAware ADS-B
Mon 08:32:17 AM 31.0010 122.5910 90° East 411 473 13,200 2,000 Climbing FlightAware ADS-B
Mon 08:32:52 AM 31.0010 122.6640 90° East 419 482 14,300 1,800 Climbing FlightAware ADS-B
Mon 08:33:37 AM 31.0010 122.7690 90° East 432 497 15,600 1,800 Climbing FlightAware ADS-B
Mon 08:34:22 AM 31.0010 122.8830 90° East 442 509 17,000 1,657 Climbing FlightAware ADS-B
Mon 08:35:22 AM 31.0180 123.0250 82° East 456 525 18,500 1,560 Climbing FlightAware ADS-B
Mon 08:36:02 AM 31.0670 123.1070 55° Northeast 468 539 19,600 776 Climbing FlightAware ADS-B
Mon 08:36:47 AM 31.1200 123.1930 54° Northeast 468 539 19,600  Level FlightAware ADS-B
Mon 08:37:27 AM 31.1640 123.2620 53° Northeast 468 539 19,600  Level FlightAware ADS-B
Mon 08:38:07 AM 31.2070 123.3320 54° Northeast 468 539 19,600  Level FlightAware ADS-B
Mon 08:38:47 AM 31.2500 123.4020 54° Northeast 468 539 19,600  Level FlightAware ADS-B
Mon 08:39:27 AM 31.2940 123.4710 53° Northeast 468 539 19,600 276 Level FlightAware ADS-B
Mon 08:40:52 AM 31.4480 123.7320 55° Northeast 25,000 280 Climbing FlightAware ADS-B
Mon 08:43:00 AM 31.6474 123.9855 71° East  Level Estimated
Mon 08:44:00 AM 31.7432 124.1079 76° East  Level Estimated
Mon 08:45:00 AM 31.7398 124.2742 91° East  Level FlightAware Approximate
Mon 08:46:00 AM 31.7362 124.4404 91° East  Level FlightAware Approximate
Mon 08:47:00 AM 31.8315 124.5634 77° East  Level Estimated
Mon 08:48:00 AM 31.8258 124.7297 92° East  Level FlightAware Approximate
Mon 08:49:00 AM 31.9209 124.8531 75° East  Level Estimated
Mon 08:50:00 AM 31.9394 125.0183 82° East  Level FlightAware Approximate
Mon 08:51:00 AM 31.9577 125.1836 83° East  Level FlightAware Approximate
Mon 08:52:00 AM 31.9758 125.3490 83° East  Level FlightAware Approximate
Mon 08:53:00 AM 31.9937 125.5145 83° East  Level FlightAware Approximate
Mon 08:54:00 AM 32.0113 125.6799 83° East  Level FlightAware Approximate
Mon 08:55:00 AM 32.0288 125.8455 83° East  Level FlightAware Approximate
Mon 08:56:00 AM 32.1227 125.9703 75° East  Level Estimated
Mon 08:57:00 AM 32.1379 126.1364 84° East  Level FlightAware Approximate
Mon 08:58:00 AM 32.1528 126.3025 84° East  Level FlightAware Approximate
Mon 08:59:00 AM 32.1675 126.4687 84° East  Level FlightAware Approximate
Mon 09:00:00 AM 32.2608 126.5943 75° East  Level Estimated
Mon 09:01:00 AM 32.2632 126.7616 89° East  Level FlightAware Approximate
Mon 09:02:00 AM 32.3563 126.8877 75° East  Level Estimated
Mon 09:03:00 AM 32.3839 127.0519 79° East  Level FlightAware Approximate
Mon 09:04:00 AM 32.4114 127.2162 79° East  Level FlightAware Approximate
Mon 09:05:00 AM 32.4386 127.3807 79° East  Level FlightAware Approximate
Mon 09:06:00 AM 32.4656 127.5452 79° East  Level FlightAware Approximate
Mon 09:07:00 AM 32.4924 127.7099 79° East  Level FlightAware Approximate
Mon 09:08:00 AM 32.5190 127.8746 79° East  Level FlightAware Approximate
Mon 09:09:00 AM 32.5454 128.0394 79° East  Level FlightAware Approximate
Mon 09:10:00 AM 32.5716 128.2044 79° East  Level FlightAware Approximate
Mon 09:11:00 AM 32.5975 128.3694 79° East  Level FlightAware Approximate
Mon 09:12:00 AM 32.6232 128.5345 79° East  Level FlightAware Approximate
Mon 09:13:00 AM 32.7145 128.6629 76° East  Level Estimated
Mon 09:14:00 AM 32.8056 128.7915 82° East  Level Estimated
Mon 09:15:00 AM 32.8966 128.9205 77° East  Level Estimated
Mon 09:16:00 AM 32.9136 129.0877 83° East  Level FlightAware Approximate
Mon 09:17:00 AM 32.9304 129.2550 83° East  Level FlightAware Approximate
Mon 09:18:00 AM 32.9469 129.4224 83° East  Level FlightAware Approximate
Mon 09:19:00 AM 32.9632 129.5899 83° East  Level FlightAware Approximate
Mon 09:20:00 AM 32.9793 129.7574 83° East  Level FlightAware Approximate
Mon 09:21:00 AM 32.9952 129.9250 84° East  Level FlightAware Approximate
Mon 09:22:00 AM 33.0108 130.0926 84° East  Level FlightAware Approximate
Mon 09:23:00 AM 33.0262 130.2603 84° East  Level FlightAware Approximate
Mon 09:24:00 AM 33.0414 130.4280 84° East  Level FlightAware Approximate
Mon 09:25:00 AM 33.0564 130.5958 84° East  Level FlightAware Approximate
Mon 09:26:00 AM 33.0712 130.7637 84° East  Level FlightAware Approximate
Mon 09:27:00 AM 33.1602 130.8949 77° East  Level Estimated
Mon 09:27:22 AM 33.5090 131.5050 85° East 550 633 33,000  Level FlightAware ADS-B
Mon 09:28:00 AM 33.1724 131.0633 85° East  Level FlightAware Approximate
Mon 09:28:07 AM 33.5470 131.6350 71° East 550 633 33,000  Level FlightAware ADS-B
Mon 09:28:47 AM 33.5800 131.7490 71° East 551 634 33,000  Level FlightAware ADS-B
Mon 09:29:27 AM 33.6130 131.8650 71° East 551 634 33,000  Level FlightAware ADS-B
Mon 09:30:12 AM 33.6490 131.9900 71° East 552 635 33,000  Level FlightAware ADS-B
Mon 09:30:52 AM 33.6850 132.1140 71° East 551 634 33,000  Level FlightAware ADS-B
Mon 09:31:37 AM 33.7210 132.2420 71° East 552 635 33,000  Level FlightAware ADS-B
Mon 09:32:17 AM 33.7540 132.3560 71° East 552 635 33,000  Level FlightAware ADS-B
Mon 09:32:57 AM 33.7860 132.4710 71° East 552 635 33,000  Level FlightAware ADS-B
Mon 09:33:42 AM 33.8230 132.6020 71° East 550 633 33,000  Level FlightAware ADS-B
Mon 09:34:22 AM 33.8570 132.7210 71° East 550 633 33,000  Level FlightAware ADS-B
Mon 09:35:07 AM 33.8930 132.8520 72° East 547 629 33,000  Level FlightAware ADS-B
Mon 09:35:47 AM 33.9240 132.9640 72° East 548 631 33,000  Level FlightAware ADS-B
Mon 09:36:27 AM 33.9580 133.0840 71° East 548 631 33,000  Level FlightAware ADS-B
Mon 09:37:12 AM 33.9930 133.2130 72° East 548 631 33,000  Level FlightAware ADS-B
Mon 09:37:52 AM 34.0250 133.3310 72° East 545 627 33,000  Level FlightAware ADS-B
Mon 09:38:37 AM 34.0620 133.4640 71° East 544 626 33,000  Level FlightAware ADS-B
Mon 09:39:17 AM 34.0900 133.5690 72° East 544 626 33,000  Level FlightAware ADS-B
Mon 09:40:02 AM 34.1300 133.7140 72° East 545 627 33,000  Level FlightAware ADS-B
Mon 09:40:42 AM 34.1620 133.8330 72° East 544 626 33,000  Level FlightAware ADS-B
Mon 09:41:22 AM 34.1930 133.9480 72° East 543 625 33,000  Level FlightAware ADS-B
Mon 09:42:07 AM 34.2220 134.0710 74° East 546 628 33,000  Level FlightAware ADS-B
Mon 09:42:47 AM 34.2480 134.1980 76° East 547 629 33,000  Level FlightAware ADS-B
Mon 09:43:32 AM 34.2730 134.3240 76° East 547 629 33,000  Level FlightAware ADS-B
Mon 09:44:12 AM 34.2980 134.4500 76° East 547 629 33,000  Level FlightAware ADS-B
Mon 09:44:52 AM 34.3210 134.5670 77° East 547 629 33,000  Level FlightAware ADS-B
Mon 09:45:37 AM 34.3480 134.7030 76° East 547 629 33,000  Level FlightAware ADS-B
Mon 09:46:17 AM 34.3720 134.8230 76° East 546 628 33,000  Level FlightAware ADS-B
Mon 09:46:57 AM 34.3930 134.9340 77° East 546 628 33,000  Level FlightAware ADS-B
Mon 09:47:42 AM 34.4320 135.0680 71° East 533 613 33,000  Level FlightAware ADS-B
Mon 09:48:22 AM 34.4690 135.1770 68° East 534 615 33,000  Level FlightAware ADS-B
Mon 09:49:07 AM 34.5090 135.3010 69° East 537 618 33,000  Level FlightAware ADS-B
Mon 09:49:47 AM 34.5440 135.4140 69° East 538 619 33,000  Level FlightAware ADS-B
Mon 09:50:32 AM 34.5850 135.5420 69° East 536 617 33,000  Level FlightAware ADS-B
Mon 09:51:12 AM 34.6230 135.6550 68° East 537 618 33,000  Level FlightAware ADS-B
Mon 09:51:47 AM 34.6540 135.7520 69° East 536 617 33,000  Level FlightAware ADS-B
Mon 09:52:37 AM 34.6990 135.8870 68° East 535 616 33,000  Level FlightAware ADS-B
Mon 09:53:12 AM 34.7320 135.9900 69° East 533 613 33,000  Level FlightAware ADS-B
Mon 09:53:57 AM 34.7710 136.1110 69° East 530 610 33,000  Level FlightAware ADS-B
Mon 09:54:32 AM 34.8030 136.2090 68° East 530 610 33,000  Level FlightAware ADS-B
Mon 09:55:22 AM 34.8460 136.3440 69° East 531 611 33,000  Level FlightAware ADS-B
Mon 09:56:02 AM 34.8820 136.4560 69° East 533 613 33,000  Level FlightAware ADS-B
Mon 09:56:47 AM 34.9230 136.5820 68° East 535 616 33,000  Level FlightAware ADS-B
Mon 09:57:27 AM 34.9580 136.6930 69° East 536 617 33,000  Level FlightAware ADS-B
Mon 09:58:07 AM 34.9940 136.8080 69° East 535 616 33,000  Level FlightAware ADS-B
Mon 09:58:52 AM 35.0350 136.9350 68° East 535 616 33,000  Level FlightAware ADS-B
Mon 09:59:32 AM 35.0700 137.0470 69° East 531 611 33,000  Level FlightAware ADS-B
Mon 10:00:17 AM 35.1100 137.1750 69° East 528 608 33,000  Level FlightAware ADS-B
Mon 10:00:57 AM 35.1450 137.2860 69° East 528 608 33,000  Level FlightAware ADS-B
Mon 10:01:42 AM 35.1830 137.4090 69° East 528 608 33,000  Level FlightAware ADS-B
Mon 10:02:22 AM 35.2190 137.5230 69° East 529 609 33,000  Level FlightAware ADS-B
Mon 10:03:02 AM 35.2530 137.6360 70° East 530 610 33,000  Level FlightAware ADS-B
Mon 10:03:47 AM 35.2930 137.7640 69° East 531 611 33,000  Level FlightAware ADS-B
Mon 10:04:27 AM 35.3270 137.8770 70° East 531 611 33,000  Level FlightAware ADS-B
Mon 10:05:07 AM 35.3620 137.9900 69° East 533 613 33,000  Level FlightAware ADS-B
Mon 10:05:52 AM 35.4010 138.1190 70° East 533 613 33,000  Level FlightAware ADS-B
Mon 10:06:32 AM 35.4340 138.2280 70° East 534 615 33,000  Level FlightAware ADS-B
Mon 10:07:17 AM 35.4740 138.3600 70° East 536 617 33,000  Level FlightAware ADS-B
Mon 10:07:57 AM 35.5080 138.4740 70° East 536 617 33,000  Level FlightAware ADS-B
Mon 10:08:37 AM 35.5430 138.5900 70° East 537 618 33,000  Level FlightAware ADS-B
Mon 10:09:22 AM 35.5810 138.7190 70° East 537 618 33,000  Level FlightAware ADS-B
Mon 10:10:02 AM 35.6150 138.8340 70° East 536 617 33,000  Level FlightAware ADS-B
Mon 10:10:47 AM 35.6530 138.9630 70° East 537 618 33,000  Level FlightAware ADS-B
Mon 10:11:27 AM 35.6870 139.0780 70° East 536 617 33,000  Level FlightAware ADS-B
Mon 10:12:07 AM 35.7190 139.1900 71° East 536 617 33,000  Level FlightAware ADS-B
Mon 10:12:52 AM 35.7550 139.3240 72° East 543 625 33,000  Level FlightAware ADS-B
Mon 10:13:37 AM 35.7870 139.4540 73° East 541 623 33,000  Level FlightAware ADS-B
Mon 10:14:17 AM 35.8170 139.5720 73° East 539 620 33,000  Level FlightAware ADS-B
Mon 10:14:57 AM 35.8470 139.6900 73° East 537 618 33,000  Level FlightAware ADS-B
Mon 10:15:37 AM 35.8750 139.7980 72° East 535 616 33,000  Level FlightAware ADS-B
Mon 10:16:22 AM 35.9070 139.9260 73° East 534 615 33,000  Level FlightAware ADS-B
Mon 10:17:02 AM 35.9390 140.0510 72° East 533 613 33,000  Level FlightAware ADS-B
Mon 10:17:42 AM 35.9670 140.1620 73° East 530 610 33,000  Level FlightAware ADS-B
Mon 10:18:27 AM 35.9990 140.2880 73° East 530 610 33,000  Level FlightAware ADS-B
Mon 10:19:07 AM 36.0290 140.4090 73° East 529 609 33,000  Level FlightAware ADS-B
Mon 10:19:47 AM 36.0580 140.5270 73° East 529 609 33,000  Level FlightAware ADS-B
Mon 10:20:32 AM 36.0880 140.6480 73° East 531 611 33,000  Level FlightAware ADS-B
Mon 10:21:17 AM 36.1220 140.7900 73° East 532 612 33,000  Level FlightAware ADS-B
Mon 10:21:52 AM 36.1470 140.8900 73° East 533 613 33,000  Level FlightAware ADS-B
Mon 10:22:42 AM 36.1800 141.0290 74° East 532 612 33,000  Level FlightAware ADS-B
Mon 10:23:22 AM 36.2100 141.1520 73° East 531 611 33,000  Level FlightAware ADS-B
Mon 10:24:07 AM 36.2380 141.2700 74° East 529 609 33,000  Level FlightAware ADS-B
Mon 10:24:47 AM 36.2680 141.3940 73° East 528 608 33,000  Level FlightAware ADS-B
Mon 10:25:42 AM 36.3050 141.5500 74° East 528 608 33,000  Level FlightAware ADS-B
Mon 10:26:27 AM 36.3370 141.6870 74° East 527 606 33,000  Level FlightAware ADS-B
Mon 10:26:57 AM 36.3580 141.7750 73° East 525 604 33,000  Level FlightAware ADS-B
Mon 10:27:52 AM 36.3940 141.9270 74° East 523 602 33,000  Level FlightAware ADS-B
Mon 10:28:32 AM 36.4210 142.0430 74° East 523 602 33,000  Level FlightAware ADS-B
Mon 10:29:12 AM 36.4470 142.1570 74° East 522 601 33,000  Level FlightAware ADS-B
Mon 10:29:57 AM 36.4760 142.2820 74° East 521 600 33,000  Level FlightAware ADS-B
Mon 10:30:32 AM 36.4970 142.3740 74° East 521 600 33,000  Level FlightAware ADS-B
Mon 10:31:17 AM 36.5260 142.5000 74° East 521 600 33,000  Level FlightAware ADS-B
Mon 10:31:57 AM 36.5480 142.5980 74° East 521 600 33,000  Level FlightAware ADS-B
Mon 10:32:37 AM 36.5710 142.6960 74° East 521 600 33,000  Level FlightAware ADS-B
Mon 10:33:27 AM 36.5990 142.8190 74° East 521 600 33,000  Level FlightAware ADS-B
Mon 10:34:07 AM 36.6220 142.9170 74° East 521 600 33,000  Level FlightAware ADS-B
Mon 10:34:47 AM 36.6440 143.0150 74° East 521 600 33,000  Level FlightAware ADS-B
Mon 10:35:27 AM 36.6670 143.1130 74° East 521 600 33,000  Level FlightAware ADS-B
Mon 10:36:07 AM 36.6900 143.2120 74° East 521 600 33,000  Level FlightAware ADS-B
Mon 10:36:57 AM 36.7180 143.3350 74° East 521 600 33,000  Level FlightAware ADS-B
Mon 10:37:37 AM 36.7400 143.4330 74° East 521 600 33,000  Level FlightAware ADS-B
Mon 10:38:17 AM 36.7630 143.5310 74° East 521 600 33,000  Level FlightAware ADS-B
Mon 10:38:57 AM 36.7850 143.6300 74° East 521 600 33,000  Level FlightAware ADS-B
Mon 10:39:37 AM 36.8080 143.7280 74° East 521 600 33,000  Level FlightAware ADS-B
Mon 10:40:27 AM 36.8360 143.8510 74° East 521 600 33,000 27 Level FlightAware ADS-B
Mon 10:42:00 AM 37.0041 144.0187 82° East  Level FlightAware Approximate
Mon 10:43:00 AM 37.0245 144.1940 82° East  Level FlightAware Approximate
Mon 10:44:00 AM 37.0446 144.3694 82° East  Level FlightAware Approximate
Mon 10:45:00 AM 37.0645 144.5449 82° East  Level FlightAware Approximate
Mon 10:46:00 AM 37.0841 144.7205 82° East  Level FlightAware Approximate
Mon 10:47:00 AM 37.1034 144.8961 82° East  Level FlightAware Approximate
Mon 10:48:00 AM 37.1225 145.0719 82° East  Level FlightAware Approximate
Mon 10:49:00 AM 37.1413 145.2478 82° East  Level FlightAware Approximate
Mon 10:50:00 AM 37.1599 145.4237 82° East  Level FlightAware Approximate
Mon 10:51:00 AM 37.1782 145.5997 83° East  Level FlightAware Approximate
Mon 10:52:00 AM 37.2372 145.7574 58° Northeast  Level FlightAware Approximate
Mon 10:53:00 AM 37.3126 145.9081 58° Northeast  Level FlightAware Approximate
Mon 10:54:00 AM 37.3878 146.0591 58° Northeast  Level FlightAware Approximate
Mon 10:55:00 AM 37.4627 146.2104 58° Northeast  Level FlightAware Approximate
Mon 10:56:00 AM 37.5375 146.3621 58° Northeast  Level FlightAware Approximate
Mon 10:57:00 AM 37.6121 146.5140 58° Northeast  Level FlightAware Approximate
Mon 10:58:00 AM 37.6865 146.6663 58° Northeast  Level FlightAware Approximate
Mon 10:59:00 AM 37.7607 146.8188 58° Northeast  Level FlightAware Approximate
Mon 11:00:00 AM 37.8347 146.9717 58° Northeast  Level FlightAware Approximate
Mon 11:01:00 AM 37.9085 147.1249 59° Northeast  Level FlightAware Approximate
Mon 11:02:00 AM 37.9822 147.2783 59° Northeast  Level FlightAware Approximate
Mon 11:03:00 AM 38.0556 147.4321 59° Northeast  Level FlightAware Approximate
Mon 11:04:00 AM 38.1288 147.5862 59° Northeast  Level FlightAware Approximate
Mon 11:05:00 AM 38.2018 147.7406 59° Northeast  Level FlightAware Approximate
Mon 11:06:00 AM 38.2746 147.8953 59° Northeast  Level FlightAware Approximate
Mon 11:07:00 AM 38.3472 148.0503 59° Northeast  Level FlightAware Approximate
Mon 11:08:00 AM 38.4196 148.2057 59° Northeast  Level FlightAware Approximate
Mon 11:09:00 AM 38.4918 148.3613 59° Northeast  Level FlightAware Approximate
Mon 11:10:00 AM 38.5638 148.5172 59° Northeast  Level FlightAware Approximate
Mon 11:11:00 AM 38.6355 148.6735 60° Northeast  Level FlightAware Approximate
Mon 11:12:00 AM 38.7071 148.8301 60° Northeast  Level FlightAware Approximate
Mon 11:13:00 AM 38.7785 148.9870 60° Northeast  Level FlightAware Approximate
Mon 11:14:00 AM 38.8496 149.1442 60° Northeast  Level FlightAware Approximate
Mon 11:15:00 AM 38.9206 149.3017 60° Northeast  Level FlightAware Approximate
Mon 11:16:00 AM 38.9912 149.4593 60° Northeast  Level FlightAware Approximate
Mon 11:17:00 AM 39.0616 149.6172 60° Northeast  Level FlightAware Approximate
Mon 11:18:00 AM 39.1318 149.7755 60° Northeast  Level FlightAware Approximate
Mon 11:19:00 AM 39.2212 149.9156 47° Northeast  Level FlightAware Approximate
Mon 11:20:00 AM 39.3174 150.0497 47° Northeast  Level FlightAware Approximate
Mon 11:21:00 AM 39.4133 150.1841 47° Northeast  Level FlightAware Approximate
Mon 11:22:00 AM 39.5092 150.3188 47° Northeast  Level FlightAware Approximate
Mon 11:23:00 AM 39.6048 150.4540 47° Northeast  Level FlightAware Approximate
Mon 11:24:00 AM 39.7004 150.5895 47° Northeast  Level FlightAware Approximate
Mon 11:25:00 AM 39.7957 150.7254 48° Northeast  Level FlightAware Approximate
Mon 11:26:00 AM 39.8909 150.8616 48° Northeast  Level FlightAware Approximate
Mon 11:27:00 AM 39.9859 150.9983 48° Northeast  Level FlightAware Approximate
Mon 11:28:00 AM 40.0808 151.1353 48° Northeast  Level FlightAware Approximate
Mon 11:29:00 AM 40.1755 151.2727 48° Northeast  Level FlightAware Approximate
Mon 11:30:00 AM 40.2701 151.4105 48° Northeast  Level FlightAware Approximate
Mon 11:31:00 AM 40.3644 151.5487 48° Northeast  Level FlightAware Approximate
Mon 11:32:00 AM 40.4587 151.6873 48° Northeast  Level FlightAware Approximate
Mon 11:33:00 AM 40.5527 151.8262 48° Northeast  Level FlightAware Approximate
Mon 11:34:00 AM 40.6466 151.9656 48° Northeast  Level FlightAware Approximate
Mon 11:35:00 AM 40.7403 152.1053 48° Northeast  Level FlightAware Approximate
Mon 11:36:00 AM 40.8339 152.2454 49° Northeast  Level FlightAware Approximate
Mon 11:37:00 AM 40.9272 152.3860 49° Northeast  Level FlightAware Approximate
Mon 11:38:00 AM 41.0205 152.5269 49° Northeast  Level FlightAware Approximate
Mon 11:39:00 AM 41.1135 152.6682 49° Northeast  Level FlightAware Approximate
Mon 11:40:00 AM 41.2064 152.8099 49° Northeast  Level FlightAware Approximate
Mon 11:41:00 AM 41.2990 152.9521 49° Northeast  Level FlightAware Approximate
Mon 11:42:00 AM 41.3916 153.0946 49° Northeast  Level FlightAware Approximate
Mon 11:43:00 AM 41.4839 153.2375 49° Northeast  Level FlightAware Approximate
Mon 11:44:00 AM 41.5761 153.3809 49° Northeast  Level FlightAware Approximate
Mon 11:45:00 AM 41.6680 153.5246 49° Northeast  Level FlightAware Approximate
Mon 11:46:00 AM 41.7598 153.6688 49° Northeast  Level FlightAware Approximate
Mon 11:47:00 AM 41.8515 153.8134 50° Northeast  Level FlightAware Approximate
Mon 11:48:00 AM 41.9426 153.9587 50° Northeast  Level FlightAware Approximate
Mon 11:49:00 AM 42.0328 154.1053 50° Northeast  Level FlightAware Approximate
Mon 11:50:00 AM 42.1228 154.2523 50° Northeast  Level FlightAware Approximate
Mon 11:51:00 AM 42.2127 154.3997 51° Northeast  Level FlightAware Approximate
Mon 11:52:00 AM 42.3023 154.5475 51° Northeast  Level FlightAware Approximate
Mon 11:53:00 AM 42.3918 154.6958 51° Northeast  Level FlightAware Approximate
Mon 11:54:00 AM 42.4810 154.8445 51° Northeast  Level FlightAware Approximate
Mon 11:55:00 AM 42.5701 154.9936 51° Northeast  Level FlightAware Approximate
Mon 11:56:00 AM 42.6590 155.1431 51° Northeast  Level FlightAware Approximate
Mon 11:57:00 AM 42.7477 155.2931 51° Northeast  Level FlightAware Approximate
Mon 11:58:00 AM 42.8362 155.4435 51° Northeast  Level FlightAware Approximate
Mon 11:59:00 AM 42.9244 155.5943 51° Northeast  Level FlightAware Approximate
Mon 12:00:00 PM 43.0126 155.7455 51° Northeast  Level FlightAware Approximate
Mon 12:01:00 PM 43.1005 155.8971 52° Northeast  Level FlightAware Approximate
Mon 12:02:00 PM 43.1882 156.0492 52° Northeast  Level FlightAware Approximate
Mon 12:03:00 PM 43.2757 156.2017 52° Northeast  Level FlightAware Approximate
Mon 12:04:00 PM 43.3631 156.3547 52° Northeast  Level FlightAware Approximate
Mon 12:05:00 PM 43.4502 156.5081 52° Northeast  Level FlightAware Approximate
Mon 12:06:00 PM 43.5375 156.6615 52° Northeast  Level FlightAware Approximate
Mon 12:07:00 PM 43.6249 156.8150 52° Northeast  Level FlightAware Approximate
Mon 12:08:00 PM 43.7121 156.9690 52° Northeast  Level FlightAware Approximate
Mon 12:09:00 PM 43.7991 157.1234 52° Northeast  Level FlightAware Approximate
Mon 12:10:00 PM 43.8858 157.2783 52° Northeast  Level FlightAware Approximate
Mon 12:11:00 PM 43.9724 157.4337 52° Northeast  Level FlightAware Approximate
Mon 12:12:00 PM 44.0578 157.5904 53° Northeast  Level FlightAware Approximate
Mon 12:13:00 PM 44.1426 157.7481 53° Northeast  Level FlightAware Approximate
Mon 12:14:00 PM 44.2272 157.9062 53° Northeast  Level FlightAware Approximate
Mon 12:15:00 PM 44.3116 158.0648 53° Northeast  Level FlightAware Approximate
Mon 12:16:00 PM 44.3957 158.2238 53° Northeast  Level FlightAware Approximate
Mon 12:17:00 PM 44.4796 158.3833 54° Northeast  Level FlightAware Approximate
Mon 12:18:00 PM 44.5633 158.5432 54° Northeast  Level FlightAware Approximate
Mon 12:19:00 PM 44.6468 158.7036 54° Northeast  Level FlightAware Approximate
Mon 12:20:00 PM 44.7300 158.8645 54° Northeast  Level FlightAware Approximate
Mon 12:21:00 PM 44.8130 159.0258 54° Northeast  Level FlightAware Approximate
Mon 12:22:00 PM 44.8958 159.1876 54° Northeast  Level FlightAware Approximate
Mon 12:23:00 PM 44.9784 159.3499 54° Northeast  Level FlightAware Approximate
Mon 12:24:00 PM 45.0607 159.5126 54° Northeast  Level FlightAware Approximate
Mon 12:25:00 PM 45.1428 159.6758 54° Northeast  Level FlightAware Approximate
Mon 12:26:00 PM 45.2246 159.8395 55° Northeast  Level FlightAware Approximate
Mon 12:27:00 PM 45.3063 160.0036 55° Northeast  Level FlightAware Approximate
Mon 12:28:00 PM 45.3876 160.1682 55° Northeast  Level FlightAware Approximate
Mon 12:29:00 PM 45.4688 160.3333 55° Northeast  Level FlightAware Approximate
Mon 12:29:55 PM 46.4167 162.3167 60° Northeast 540 621 36,000  Level Anchorage Center
Mon 12:30:00 PM 45.5497 160.4989 55° Northeast  Level FlightAware Approximate
Mon 12:31:00 PM 45.6304 160.6649 55° Northeast  Level FlightAware Approximate
Mon 12:32:00 PM 45.7108 160.8314 55° Northeast  Level FlightAware Approximate
Mon 12:32:50 PM 46.6667 162.9500 61° Northeast 536 617 36,000  Level Anchorage Center
Mon 12:33:00 PM 45.7910 160.9984 55° Northeast  Level FlightAware Approximate
Mon 12:34:00 PM 45.8710 161.1659 56° Northeast  Level FlightAware Approximate
Mon 12:35:00 PM 45.9507 161.3339 56° Northeast  Level FlightAware Approximate
Mon 12:36:00 PM 46.9274 163.6416 61° Northeast 540 621 36,000  Level FlightAware Transoceanic
Mon 12:37:00 PM 46.9991 163.8330 61° Northeast 540 621 36,000  Level FlightAware Transoceanic
Mon 12:38:00 PM 47.0704 164.0248 61° Northeast 540 621 36,000  Level FlightAware Transoceanic
Mon 12:39:00 PM 47.1078 164.1199 62° Northeast 536 617 36,000  Level FlightAware Transoceanic
Mon 12:40:00 PM 47.1802 164.3167 62° Northeast 536 617 36,000  Level FlightAware Transoceanic
Mon 12:41:00 PM 47.2522 164.5141 62° Northeast 536 617 36,000  Level FlightAware Transoceanic
Mon 12:42:00 PM 47.3239 164.7121 62° Northeast 536 617 36,000  Level FlightAware Transoceanic
Mon 12:42:26 PM 47.3500 164.8000 62° Northeast 536 617 36,000  Level Anchorage Center
Mon 12:43:00 PM 47.3952 164.9105 62° Northeast 536 617 36,000  Level FlightAware Transoceanic
Mon 12:44:00 PM 47.4662 165.1095 62° Northeast 536 617 36,000  Level FlightAware Transoceanic
Mon 12:45:00 PM 47.5369 165.3091 62° Northeast 536 617 36,000  Level FlightAware Transoceanic
Mon 12:46:00 PM 47.6072 165.5091 63° Northeast 536 617 36,000  Level FlightAware Transoceanic
Mon 12:47:00 PM 47.6771 165.7097 63° Northeast 536 617 36,000  Level FlightAware Transoceanic
Mon 12:48:00 PM 47.7467 165.9109 63° Northeast 536 617 36,000  Level FlightAware Transoceanic
Mon 12:49:00 PM 47.8160 166.1126 63° Northeast 536 617 36,000  Level FlightAware Transoceanic
Mon 12:50:00 PM 47.8849 166.3148 63° Northeast 536 617 36,000  Level FlightAware Transoceanic
Mon 12:51:00 PM 47.9670 166.5670 63° Northeast 536 617 36,000  Level FlightAware Transoceanic
Mon 12:52:00 PM 48.0339 166.7659 63° Northeast 536 617 36,000  Level FlightAware Transoceanic
Mon 12:52:03 PM 48.0000 166.6667 63° Northeast 535 616 36,000  Level Anchorage Center
Mon 12:53:00 PM 48.1004 166.9653 64° Northeast 536 617 36,000  Level FlightAware Transoceanic
Mon 12:54:00 PM 48.1666 167.1653 64° Northeast 536 617 36,000  Level FlightAware Transoceanic
Mon 12:55:00 PM 48.2324 167.3657 64° Northeast 536 617 36,000  Level FlightAware Transoceanic
Mon 12:56:00 PM 48.2979 167.5667 64° Northeast 536 617 36,000  Level FlightAware Transoceanic
Mon 12:57:00 PM 48.3630 167.7682 64° Northeast 536 617 36,000  Level FlightAware Transoceanic
Mon 12:58:00 PM 48.4147 167.9299 64° Northeast 535 616 36,000  Level FlightAware Transoceanic
Mon 12:59:00 PM 48.4824 168.1424 64° Northeast 535 616 36,000  Level FlightAware Transoceanic
Mon 01:00:00 PM 48.5498 168.3555 65° Northeast 535 616 36,000  Level FlightAware Transoceanic
Mon 01:01:00 PM 48.6168 168.5691 65° Northeast 535 616 36,000  Level FlightAware Transoceanic
Mon 01:02:00 PM 48.6833 168.7833 66° East 535 616 36,000  Level FlightAware Transoceanic
Mon 01:02:20 PM 48.6167 168.5667 65° Northeast 525 604 36,000  Level Anchorage Center
Mon 01:03:00 PM 48.7401 168.9750 66° East 535 616 36,000  Level FlightAware Transoceanic
Mon 01:03:07 PM 48.6833 168.7833 66° East 519 597 36,000  Level Anchorage Center
Mon 01:04:00 PM 48.7966 169.1671 66° East 535 616 36,000  Level FlightAware Transoceanic
Mon 01:05:00 PM 48.8527 169.3597 66° East 535 616 36,000  Level FlightAware Transoceanic
Mon 01:06:00 PM 48.9085 169.5527 66° East 535 616 36,000  Level FlightAware Transoceanic
Mon 01:07:00 PM 48.9640 169.7461 66° East 535 616 36,000  Level FlightAware Transoceanic
Mon 01:08:00 PM 49.0191 169.9399 67° East 525 604 36,000  Level FlightAware Transoceanic
Mon 01:09:00 PM 49.0849 170.1731 67° East 519 597 36,000  Level FlightAware Transoceanic
Mon 01:10:00 PM 49.1409 170.3734 67° East 519 597 36,000  Level FlightAware Transoceanic
Mon 01:11:00 PM 49.1965 170.5742 67° East 519 597 36,000  Level FlightAware Transoceanic
Mon 01:11:14 PM 49.1667 170.5000 67° East 516 594 36,000  Level Anchorage Center
Mon 01:12:00 PM 49.2518 170.7755 67° East 519 597 36,000  Level FlightAware Transoceanic
Mon 01:13:00 PM 49.3068 170.9772 67° East 519 597 36,000  Level FlightAware Transoceanic
Mon 01:14:00 PM 49.3614 171.1794 68° East 519 597 36,000  Level FlightAware Transoceanic
Mon 01:15:00 PM 49.4156 171.3820 68° East 519 597 36,000  Level FlightAware Transoceanic
Mon 01:16:00 PM 49.4695 171.5850 68° East 519 597 36,000  Level FlightAware Transoceanic
Mon 01:17:00 PM 49.5007 171.7305 68° East 516 594 36,000  Level FlightAware Transoceanic
Mon 01:18:00 PM 49.5551 171.9371 68° East 516 594 36,000  Level FlightAware Transoceanic
Mon 01:19:00 PM 49.6091 172.1443 68° East 516 594 36,000  Level FlightAware Transoceanic
Mon 01:20:00 PM 49.6627 172.3519 68° East 516 594 36,000  Level FlightAware Transoceanic
Mon 01:20:39 PM 49.6833 172.4333 68° East 511 588 36,000  Level Anchorage Center
Mon 01:21:00 PM 49.7160 172.5600 68° East 516 594 36,000  Level FlightAware Transoceanic
Mon 01:22:00 PM 49.7689 172.7685 69° East 516 594 36,000  Level FlightAware Transoceanic
Mon 01:23:00 PM 49.8214 172.9775 69° East 516 594 36,000  Level FlightAware Transoceanic
Mon 01:24:00 PM 49.8736 173.1869 69° East 516 594 36,000  Level FlightAware Transoceanic
Mon 01:25:00 PM 49.9254 173.3968 69° East 516 594 36,000  Level FlightAware Transoceanic
Mon 01:26:00 PM 49.9394 173.4549 69° East 511 588 36,000  Level FlightAware Transoceanic
Mon 01:27:00 PM 49.9895 173.6605 69° East 511 588 36,000  Level FlightAware Transoceanic
Mon 01:28:00 PM 50.0393 173.8665 69° East 511 588 36,000  Level FlightAware Transoceanic
Mon 01:29:00 PM 50.0887 174.0730 70° East 511 588 36,000  Level FlightAware Transoceanic
Mon 01:30:00 PM 50.1377 174.2799 70° East 511 588 36,000  Level FlightAware Transoceanic
Mon 01:30:15 PM 50.1667 174.3833 70° East 497 572 36,000  Level Anchorage Center
Mon 01:31:00 PM 50.1864 174.4872 70° East 511 588 36,000  Level FlightAware Transoceanic
Mon 01:32:00 PM 50.2347 174.6949 70° East 511 588 36,000  Level FlightAware Transoceanic
Mon 01:33:00 PM 50.2826 174.9030 70° East 511 588 36,000  Level FlightAware Transoceanic
Mon 01:34:00 PM 50.3302 175.1116 70° East 511 588 36,000  Level FlightAware Transoceanic
Mon 01:35:00 PM 50.3774 175.3206 71° East 511 588 36,000  Level FlightAware Transoceanic
Mon 01:36:00 PM 50.4311 175.5562 71° East 497 572 36,000  Level FlightAware Transoceanic
Mon 01:37:00 PM 50.4741 175.7529 71° East 497 572 36,000  Level FlightAware Transoceanic
Mon 01:38:00 PM 50.5167 175.9500 71° East 497 572 36,000  Level FlightAware Transoceanic
Mon 01:38:13 PM 50.5167 175.9500 71° East 483 556 36,000  Level Anchorage Center
Mon 01:39:00 PM 50.5603 176.1486 71° East 497 572 36,000  Level FlightAware Transoceanic
Mon 01:39:51 PM 50.6000 176.3000 71° East 479 551 36,000  Level Anchorage Center
Mon 01:40:00 PM 50.6036 176.3475 71° East 497 572 36,000  Level FlightAware Transoceanic
Mon 01:41:00 PM 50.6466 176.5469 71° East 497 572 36,000  Level FlightAware Transoceanic
Mon 01:42:00 PM 50.6892 176.7466 71° East 497 572 36,000  Level FlightAware Transoceanic
Mon 01:43:00 PM 50.7315 176.9466 72° East 497 572 36,000  Level FlightAware Transoceanic
Mon 01:44:00 PM 50.7734 177.1470 72° East 483 556 36,000  Level FlightAware Transoceanic
Mon 01:45:00 PM 50.8150 177.3478 72° East 483 556 36,000  Level FlightAware Transoceanic
Mon 01:46:00 PM 50.8537 177.5095 72° East 479 551 36,000  Level FlightAware Transoceanic
Mon 01:47:00 PM 50.8947 177.7123 72° East 479 551 36,000  Level FlightAware Transoceanic
Mon 01:48:00 PM 50.9355 177.9155 72° East 479 551 36,000  Level FlightAware Transoceanic
Mon 01:49:00 PM 50.9758 178.1190 73° East 479 551 36,000  Level FlightAware Transoceanic
Mon 01:49:29 PM 51.0000 178.2333 73° East 482 555 36,000  Level Anchorage Center
Mon 01:50:00 PM 51.0158 178.3230 73° East 479 551 36,000  Level FlightAware Transoceanic
Mon 01:51:00 PM 51.0555 178.5272 73° East 479 551 36,000  Level FlightAware Transoceanic
Mon 01:52:00 PM 51.0947 178.7318 73° East 479 551 36,000  Level FlightAware Transoceanic
Mon 01:53:00 PM 51.1337 178.9368 73° East 479 551 36,000  Level FlightAware Transoceanic
Mon 01:54:00 PM 51.1722 179.1420 73° East 479 551 36,000  Level FlightAware Transoceanic
Mon 01:55:00 PM 51.2279 179.4355 74° East 482 555 36,000  Level FlightAware Transoceanic
Mon 01:56:00 PM 51.2647 179.6369 74° East 482 555 36,000  Level FlightAware Transoceanic
Mon 01:57:00 PM 51.3012 179.8388 74° East 482 555 36,000  Level FlightAware Transoceanic
Mon 01:58:00 PM 51.3372 -179.9591 74° East 482 555 36,000  Level FlightAware Transoceanic
Mon 01:59:00 PM 51.3730 -179.7566 74° East 482 555 36,000  Level FlightAware Transoceanic
Mon 01:59:05 PM 51.3667 -179.8333 74° East 464 534 36,000  Level Anchorage Center
Mon 02:00:00 PM 51.4084 -179.5539 74° East 482 555 36,000  Level FlightAware Transoceanic
Mon 02:01:00 PM 51.4434 -179.3508 75° East 482 555 36,000  Level FlightAware Transoceanic
Mon 02:02:00 PM 51.4781 -179.1474 75° East 482 555 36,000  Level FlightAware Transoceanic
Mon 02:03:00 PM 51.5125 -178.9437 75° East 482 555 36,000  Level FlightAware Transoceanic
Mon 02:04:00 PM 51.5464 -178.7397 75° East 482 555 36,000  Level FlightAware Transoceanic
Mon 02:05:00 PM 51.5640 -178.6603 75° East 464 534 36,000  Level FlightAware Transoceanic
Mon 02:06:00 PM 51.5958 -178.4638 76° East 464 534 36,000  Level FlightAware Transoceanic
Mon 02:07:00 PM 51.6272 -178.2670 76° East 464 534 36,000  Level FlightAware Transoceanic
Mon 02:08:00 PM 51.6583 -178.0700 76° East 464 534 36,000  Level FlightAware Transoceanic
Mon 02:08:40 PM 51.6833 -177.9333 76° East 454 522 36,000  Level Anchorage Center
Mon 02:09:00 PM 51.6891 -177.8727 76° East 464 534 36,000  Level FlightAware Transoceanic
Mon 02:10:00 PM 51.7195 -177.6751 76° East 464 534 36,000  Level FlightAware Transoceanic
Mon 02:11:00 PM 51.7496 -177.4773 76° East 464 534 36,000  Level FlightAware Transoceanic
Mon 02:12:00 PM 51.7794 -177.2792 76° East 464 534 36,000  Level FlightAware Transoceanic
Mon 02:13:00 PM 51.8088 -177.0808 77° East 464 534 36,000  Level FlightAware Transoceanic
Mon 02:14:00 PM 51.8379 -176.8822 77° East 464 534 36,000  Level FlightAware Transoceanic
Mon 02:15:00 PM 51.8667 -176.6833 86° East 454 522 36,000  Level FlightAware Transoceanic
Mon 02:15:48 PM 51.8667 -176.6833 86° East 470 541 36,000  Level Anchorage Center
Mon 02:16:00 PM 51.8769 -176.4686 86° East 454 522 36,000  Level FlightAware Transoceanic
Mon 02:17:00 PM 51.8867 -176.2538 86° East 454 522 36,000  Level FlightAware Transoceanic
Mon 02:18:00 PM 51.8961 -176.0390 86° East 454 522 36,000  Level FlightAware Transoceanic
Mon 02:18:16 PM 51.9000 -176.0167 86° East 476 548 36,000  Level Anchorage Center
Mon 02:19:00 PM 51.9051 -175.8240 86° East 454 522 36,000  Level FlightAware Transoceanic
Mon 02:20:00 PM 51.9137 -175.6089 86° East 454 522 36,000  Level FlightAware Transoceanic
Mon 02:21:00 PM 51.9220 -175.3938 87° East 454 522 36,000  Level FlightAware Transoceanic
Mon 02:22:00 PM 51.9281 -175.2256 87° East 470 541 36,000  Level FlightAware Transoceanic
Mon 02:23:00 PM 51.9355 -175.0171 87° East 470 541 36,000  Level FlightAware Transoceanic
Mon 02:24:00 PM 51.9472 -174.7303 87° East 476 548 36,000  Level FlightAware Transoceanic
Mon 02:25:00 PM 51.9537 -174.5157 87° East 476 548 36,000  Level FlightAware Transoceanic
Mon 02:26:00 PM 51.9599 -174.3010 87° East 476 548 36,000  Level FlightAware Transoceanic
Mon 02:27:00 PM 51.9656 -174.0862 88° East 476 548 36,000  Level FlightAware Transoceanic
Mon 02:27:52 PM 51.9667 -173.9667 88° East 491 565 36,000  Level Anchorage Center
Mon 02:28:00 PM 51.9709 -173.8714 88° East 476 548 36,000  Level FlightAware Transoceanic
Mon 02:29:00 PM 51.9759 -173.6565 88° East 476 548 36,000  Level FlightAware Transoceanic
Mon 02:30:00 PM 51.9804 -173.4416 88° East 476 548 36,000  Level FlightAware Transoceanic
Mon 02:31:00 PM 51.9846 -173.2267 88° East 476 548 36,000  Level FlightAware Transoceanic
Mon 02:32:00 PM 51.9883 -173.0117 88° East 476 548 36,000  Level FlightAware Transoceanic
Mon 02:33:00 PM 51.9917 -172.7967 89° East 476 548 36,000  Level FlightAware Transoceanic
Mon 02:34:00 PM 51.9926 -172.6452 89° East 491 565 36,000  Level FlightAware Transoceanic
Mon 02:35:00 PM 51.9955 -172.4249 89° East 491 565 36,000  Level FlightAware Transoceanic
Mon 02:36:00 PM 51.9979 -172.2045 89° East 491 565 36,000  Level FlightAware Transoceanic
Mon 02:37:00 PM 52.0000 -171.9841 89° East 491 565 36,000  Level FlightAware Transoceanic
Mon 02:37:28 PM 52.0000 -171.8667 89° East 479 551 36,000  Level Anchorage Center
Mon 02:38:00 PM 52.0016 -171.7636 89° East 491 565 36,000  Level FlightAware Transoceanic
Mon 02:39:00 PM 52.0029 -171.5432 90° East 491 565 36,000  Level FlightAware Transoceanic
Mon 02:40:00 PM 52.0037 -171.3227 90° East 491 565 36,000  Level FlightAware Transoceanic
Mon 02:41:00 PM 52.0041 -171.1023 90° East 491 565 36,000  Level FlightAware Transoceanic
Mon 02:42:00 PM 52.0041 -170.8818 90° East 491 565 36,000  Level FlightAware Transoceanic
Mon 02:43:00 PM 52.0033 -170.6222 90° East 479 551 36,000  Level FlightAware Transoceanic
Mon 02:44:00 PM 52.0025 -170.4148 90° East 479 551 36,000  Level FlightAware Transoceanic
Mon 02:45:00 PM 52.0015 -170.2074 91° East 479 551 36,000  Level FlightAware Transoceanic
Mon 02:46:00 PM 52.0000 -170.0000 86° East 479 551 36,000  Level FlightAware Transoceanic
Mon 02:47:00 PM 52.0088 -169.7879 86° East 479 551 36,000  Level FlightAware Transoceanic
Mon 02:48:00 PM 52.0172 -169.5756 86° East 479 551 36,000  Level FlightAware Transoceanic
Mon 02:48:20 PM 52.0000 -170.0000 86° East 484 557 36,000  Level Anchorage Center
Mon 02:49:00 PM 52.0253 -169.3634 87° East 479 551 36,000  Level FlightAware Transoceanic
Mon 02:50:00 PM 52.0330 -169.1510 87° East 479 551 36,000  Level FlightAware Transoceanic
Mon 02:50:32 PM 52.0333 -169.1667 87° East 476 548 36,000  Level Anchorage Center
Mon 02:51:00 PM 52.0402 -168.9385 87° East 479 551 36,000  Level FlightAware Transoceanic
Mon 02:52:00 PM 52.0471 -168.7260 87° East 479 551 36,000  Level FlightAware Transoceanic
Mon 02:53:00 PM 52.0537 -168.5134 87° East 479 551 36,000  Level FlightAware Transoceanic
Mon 02:54:00 PM 52.0608 -168.2638 87° East 484 557 36,000  Level FlightAware Transoceanic
Mon 02:55:00 PM 52.0667 -168.0465 88° East 484 557 36,000  Level FlightAware Transoceanic
Mon 02:56:00 PM 52.0714 -167.8889 88° East 476 548 36,000  Level FlightAware Transoceanic
Mon 02:56:53 PM 52.0667 -167.8167 88° East 473 544 36,000  Level Anchorage Center
Mon 02:57:00 PM 52.0764 -167.6757 88° East 476 548 36,000  Level FlightAware Transoceanic
Mon 02:58:00 PM 52.0810 -167.4625 88° East 476 548 36,000  Level FlightAware Transoceanic
Mon 02:59:00 PM 52.0853 -167.2493 88° East 476 548 36,000  Level FlightAware Transoceanic
Mon 03:00:00 PM 52.0891 -167.0360 88° East 476 548 36,000  Level FlightAware Transoceanic
Mon 03:01:00 PM 52.0926 -166.8227 89° East 476 548 36,000  Level FlightAware Transoceanic
Mon 03:02:00 PM 52.0956 -166.6093 89° East 476 548 36,000  Level FlightAware Transoceanic
Mon 03:03:00 PM 52.0915 -166.5137 89° East 473 544 36,000  Level FlightAware Transoceanic
Mon 03:04:00 PM 52.0942 -166.2964 89° East 473 544 36,000  Level FlightAware Transoceanic
Mon 03:05:00 PM 52.0966 -166.0791 89° East 473 544 36,000  Level FlightAware Transoceanic
Mon 03:06:00 PM 52.0985 -165.8617 89° East 473 544 36,000  Level FlightAware Transoceanic
Mon 03:07:00 PM 52.1001 -165.6444 89° East 473 544 36,000  Level FlightAware Transoceanic
Mon 03:08:00 PM 52.1012 -165.4270 90° East 473 544 36,000  Level FlightAware Transoceanic
Mon 03:09:00 PM 52.1020 -165.2096 90° East 473 544 36,000  Level FlightAware Transoceanic
Mon 03:10:00 PM 52.1023 -164.9923 90° East 473 544 36,000  Level FlightAware Transoceanic
Mon 03:11:00 PM 52.1022 -164.7749 90° East 473 544 36,000  Level FlightAware Transoceanic
Mon 03:12:00 PM 52.1018 -164.5575 90° East 473 544 36,000  Level FlightAware Transoceanic
Mon 03:13:00 PM 52.1009 -164.3401 90° East 473 544 36,000  Level FlightAware Transoceanic
Mon 03:14:00 PM 52.0997 -164.1228 91° East 473 544 36,000  Level FlightAware Transoceanic
Mon 03:15:00 PM 52.0980 -163.9054 91° East 473 544 36,000  Level FlightAware Transoceanic
Mon 03:16:00 PM 52.0960 -163.6881 91° East 473 544 36,000  Level FlightAware Transoceanic
Mon 03:17:00 PM 52.0935 -163.4708 91° East 473 544 36,000  Level FlightAware Transoceanic
Mon 03:18:00 PM 52.0906 -163.2535 91° East 473 544 36,000  Level FlightAware Transoceanic
Mon 03:18:55 PM 52.0833 -163.1333 91° East 481 554 36,000  Level Oakland Oceanic (ODAPS)
Mon 03:19:00 PM 52.0874 -163.0362 91° East 473 544 36,000  Level FlightAware Transoceanic
Mon 03:20:00 PM 52.0838 -162.8190 92° East 473 544 36,000  Level FlightAware Transoceanic
Mon 03:21:00 PM 52.0797 -162.6018 92° East 473 544 36,000  Level FlightAware Transoceanic
Mon 03:22:00 PM 52.0752 -162.3847 92° East 473 544 36,000  Level FlightAware Transoceanic
Mon 03:23:00 PM 52.0704 -162.1676 92° East 473 544 36,000  Level FlightAware Transoceanic
Mon 03:24:00 PM 52.0652 -161.9506 92° East 473 544 36,000  Level FlightAware Transoceanic
Mon 03:25:00 PM 52.0578 -161.7891 92° East 481 554 36,000  Level FlightAware Transoceanic
Mon 03:26:00 PM 52.0521 -161.5652 92° East 481 554 36,000  Level FlightAware Transoceanic
Mon 03:27:00 PM 52.0459 -161.3414 93° East 481 554 36,000  Level FlightAware Transoceanic
Mon 03:28:00 PM 52.0393 -161.1176 93° East 481 554 36,000  Level FlightAware Transoceanic
Mon 03:29:00 PM 52.0323 -160.8940 93° East 481 554 36,000  Level FlightAware Transoceanic
Mon 03:30:00 PM 52.0248 -160.6703 93° East 481 554 36,000  Level FlightAware Transoceanic
Mon 03:31:00 PM 52.0170 -160.4468 93° East 481 554 36,000  Level FlightAware Transoceanic
Mon 03:32:00 PM 52.0087 -160.2234 94° East 481 554 36,000  Level FlightAware Transoceanic
Mon 03:32:36 PM 52.0000 -160.1500 90° East 485 558 36,000  Level Oakland Oceanic (ODAPS)
Mon 03:33:00 PM 52.0000 -160.0000 86° East 481 554 36,000  Level FlightAware Transoceanic
Mon 03:33:23 PM 52.0000 -160.0000 86° East 488 562 36,000  Level Oakland Oceanic (ODAPS)
Mon 03:34:00 PM 52.0092 -159.7784 86° East 481 554 36,000  Level FlightAware Transoceanic
Mon 03:35:00 PM 52.0180 -159.5568 86° East 481 554 36,000  Level FlightAware Transoceanic
Mon 03:36:00 PM 52.0263 -159.3350 87° East 481 554 36,000  Level FlightAware Transoceanic
Mon 03:37:00 PM 52.0343 -159.1132 87° East 481 554 36,000  Level FlightAware Transoceanic
Mon 03:38:00 PM 52.0418 -158.8913 87° East 485 558 36,000  Level FlightAware Transoceanic
Mon 03:39:00 PM 52.0480 -158.6983 87° East 488 562 36,000  Level FlightAware Transoceanic
Mon 03:40:00 PM 52.0546 -158.4811 87° East 488 562 36,000  Level FlightAware Transoceanic
Mon 03:41:00 PM 52.0608 -158.2638 87° East 488 562 36,000  Level FlightAware Transoceanic
Mon 03:42:00 PM 52.0667 -158.0465 88° East 488 562 36,000  Level FlightAware Transoceanic
Mon 03:43:00 PM 52.0720 -157.8291 88° East 488 562 36,000  Level FlightAware Transoceanic
Mon 03:44:00 PM 52.0771 -157.6117 88° East 488 562 36,000  Level FlightAware Transoceanic
Mon 03:45:00 PM 52.0817 -157.3942 88° East 488 562 36,000  Level FlightAware Transoceanic
Mon 03:46:00 PM 52.0859 -157.1767 88° East 488 562 36,000 600 Level FlightAware Transoceanic
Mon 03:46:40 PM 52.0833 -157.1500 88° East 485 558 37,000  Climbing Oakland Oceanic (ODAPS)
Mon 03:47:00 PM 52.0897 -156.9591 88° East 488 562 36,000 -750 Descending FlightAware Transoceanic
Mon 03:48:00 PM 52.0931 -156.7415 89° East 488 562 36,000  Level FlightAware Transoceanic
Mon 03:49:00 PM 52.0961 -156.5239 89° East 488 562 36,000  Level FlightAware Transoceanic
Mon 03:50:00 PM 52.0987 -156.3063 89° East 488 562 36,000  Level FlightAware Transoceanic
Mon 03:51:00 PM 52.1009 -156.0886 89° East 488 562 36,000  Level FlightAware Transoceanic
Mon 03:52:00 PM 52.1027 -155.8709 89° East 488 562 36,000 500 Level FlightAware Transoceanic
Mon 03:53:00 PM 52.1018 -155.6322 89° East 485 558 37,000 500 Climbing FlightAware Transoceanic
Mon 03:54:00 PM 52.1029 -155.4153 90° East 485 558 37,000  Level FlightAware Transoceanic
Mon 03:55:00 PM 52.1035 -155.1984 90° East 485 558 37,000  Level FlightAware Transoceanic
Mon 03:56:00 PM 52.1038 -154.9815 90° East 485 558 37,000  Level FlightAware Transoceanic
Mon 03:57:00 PM 52.1037 -154.7646 90° East 485 558 37,000  Level FlightAware Transoceanic
Mon 03:58:00 PM 52.1031 -154.5476 90° East 485 558 37,000  Level FlightAware Transoceanic
Mon 03:59:00 PM 52.1022 -154.3307 90° East 485 558 37,000  Level FlightAware Transoceanic
Mon 04:00:00 PM 52.1009 -154.1138 91° East 485 558 37,000  Level FlightAware Transoceanic
Mon 04:00:31 PM 52.1000 -154.2000 91° East 487 560 37,000  Level Oakland Oceanic (ODAPS)
Mon 04:01:00 PM 52.0991 -153.8970 91° East 485 558 37,000  Level FlightAware Transoceanic
Mon 04:02:00 PM 52.0970 -153.6801 91° East 485 558 37,000  Level FlightAware Transoceanic
Mon 04:03:00 PM 52.0945 -153.4633 91° East 485 558 37,000  Level FlightAware Transoceanic
Mon 04:04:00 PM 52.0915 -153.2464 91° East 485 558 37,000  Level FlightAware Transoceanic
Mon 04:05:00 PM 52.0882 -153.0296 92° East 485 558 37,000  Level FlightAware Transoceanic
Mon 04:06:00 PM 52.0845 -152.8129 92° East 485 558 37,000  Level FlightAware Transoceanic
Mon 04:07:00 PM 52.0805 -152.6506 92° East 487 560 37,000  Level FlightAware Transoceanic
Mon 04:08:00 PM 52.0761 -152.4294 92° East 487 560 37,000  Level FlightAware Transoceanic
Mon 04:09:00 PM 52.0713 -152.2082 92° East 487 560 37,000  Level FlightAware Transoceanic
Mon 04:10:00 PM 52.0660 -151.9871 92° East 487 560 37,000  Level FlightAware Transoceanic
Mon 04:11:00 PM 52.0603 -151.7660 92° East 487 560 37,000  Level FlightAware Transoceanic
Mon 04:12:00 PM 52.0542 -151.5450 93° East 487 560 37,000  Level FlightAware Transoceanic
Mon 04:13:00 PM 52.0477 -151.3241 93° East 487 560 37,000  Level FlightAware Transoceanic
Mon 04:14:00 PM 52.0408 -151.1032 93° East 487 560 37,000  Level FlightAware Transoceanic
Mon 04:14:24 PM 52.0500 -151.1833 93° East 491 565 37,000  Level Oakland Oceanic (ODAPS)
Mon 04:15:00 PM 52.0335 -150.8824 93° East 487 560 37,000  Level FlightAware Transoceanic
Mon 04:16:00 PM 52.0257 -150.6617 93° East 487 560 37,000  Level FlightAware Transoceanic
Mon 04:17:00 PM 52.0176 -150.4411 94° East 487 560 37,000  Level FlightAware Transoceanic
Mon 04:18:00 PM 52.0090 -150.2205 94° East 487 560 37,000  Level FlightAware Transoceanic
Mon 04:19:00 PM 52.0000 -150.0000 95° East 487 560 37,000  Level FlightAware Transoceanic
Mon 04:20:00 PM 52.0000 -150.0000 95° East 491 565 37,000  Level FlightAware Transoceanic
Mon 04:20:04 PM 52.0000 -150.0000 95° East 499 574 37,000  Level Oakland Oceanic (ODAPS)
Mon 04:21:00 PM 51.9868 -149.7685 95° East 491 565 37,000  Level FlightAware Transoceanic
Mon 04:22:00 PM 51.9732 -149.5371 96° East 491 565 37,000  Level FlightAware Transoceanic
Mon 04:23:00 PM 51.9591 -149.3058 96° East 491 565 37,000  Level FlightAware Transoceanic
Mon 04:24:00 PM 51.9446 -149.0747 96° East 491 565 37,000  Level FlightAware Transoceanic
Mon 04:25:00 PM 51.9296 -148.8438 96° East 491 565 37,000  Level FlightAware Transoceanic
Mon 04:26:00 PM 51.9163 -148.6437 96° East 499 574 37,000  Level FlightAware Transoceanic
Mon 04:27:00 PM 51.9008 -148.4182 96° East 499 574 37,000  Level FlightAware Transoceanic
Mon 04:28:00 PM 51.8849 -148.1928 97° East 499 574 37,000  Level FlightAware Transoceanic
Mon 04:28:16 PM 51.8833 -148.1667 97° East 502 578 37,000  Level Oakland Oceanic (ODAPS)
Mon 04:29:00 PM 51.8686 -147.9676 97° East 499 574 37,000  Level FlightAware Transoceanic
Mon 04:30:00 PM 51.8518 -147.7425 97° East 499 574 37,000  Level FlightAware Transoceanic
Mon 04:31:00 PM 51.8346 -147.5177 97° East 499 574 37,000  Level FlightAware Transoceanic
Mon 04:32:00 PM 51.8170 -147.2930 97° East 499 574 37,000  Level FlightAware Transoceanic
Mon 04:33:00 PM 51.7990 -147.0684 97° East 499 574 37,000  Level FlightAware Transoceanic
Mon 04:34:00 PM 51.7789 -146.8223 98° East 502 578 37,000  Level FlightAware Transoceanic
Mon 04:35:00 PM 51.7601 -146.5988 98° East 502 578 37,000  Level FlightAware Transoceanic
Mon 04:36:00 PM 51.7407 -146.3756 98° East 502 578 37,000  Level FlightAware Transoceanic
Mon 04:37:00 PM 51.7210 -146.1525 98° East 502 578 37,000  Level FlightAware Transoceanic
Mon 04:38:00 PM 51.7009 -145.9296 98° East 502 578 37,000  Level FlightAware Transoceanic
Mon 04:39:00 PM 51.6803 -145.7070 99° East 502 578 37,000  Level FlightAware Transoceanic
Mon 04:40:00 PM 51.6593 -145.4845 99° East 502 578 37,000  Level FlightAware Transoceanic
Mon 04:41:00 PM 51.6379 -145.2623 99° East 502 578 37,000  Level FlightAware Transoceanic
Mon 04:42:00 PM 51.6160 -145.0402 99° East 502 578 37,000  Level FlightAware Transoceanic
Mon 04:42:08 PM 51.6167 -145.1167 99° East 513 590 37,000  Level Oakland Oceanic (ODAPS)
Mon 04:43:00 PM 51.5938 -144.8184 99° East 502 578 37,000  Level FlightAware Transoceanic
Mon 04:44:00 PM 51.5711 -144.5968 99° East 502 578 37,000  Level FlightAware Transoceanic
Mon 04:45:00 PM 51.5480 -144.3754 100° East 502 578 37,000  Level FlightAware Transoceanic
Mon 04:46:00 PM 51.5245 -144.1543 100° East 502 578 37,000  Level FlightAware Transoceanic
Mon 04:47:00 PM 51.5006 -143.9333 100° East 502 578 37,000  Level FlightAware Transoceanic
Mon 04:48:00 PM 51.4774 -143.7690 100° East 513 590 37,000  Level FlightAware Transoceanic
Mon 04:49:00 PM 51.4527 -143.5452 100° East 513 590 37,000  Level FlightAware Transoceanic
Mon 04:50:00 PM 51.4275 -143.3216 100° East 513 590 37,000  Level FlightAware Transoceanic
Mon 04:51:00 PM 51.4020 -143.0983 100° East 513 590 37,000  Level FlightAware Transoceanic
Mon 04:52:00 PM 51.3760 -142.8752 101° East 513 590 37,000  Level FlightAware Transoceanic
Mon 04:53:00 PM 51.3496 -142.6524 101° East 513 590 37,000  Level FlightAware Transoceanic
Mon 04:54:00 PM 51.3227 -142.4299 101° East 513 590 37,000  Level FlightAware Transoceanic
Mon 04:55:00 PM 51.2955 -142.2076 101° East 513 590 37,000  Level FlightAware Transoceanic
Mon 04:56:00 PM 51.2678 -141.9856 101° East 513 590 37,000  Level FlightAware Transoceanic
Mon 04:56:00 PM 51.2667 -142.0167 101° East 522 601 37,000  Level Oakland Oceanic (ODAPS)
Mon 04:57:00 PM 51.2397 -141.7639 102° East 513 590 37,000  Level FlightAware Transoceanic
Mon 04:58:00 PM 51.2112 -141.5424 102° East 513 590 37,000  Level FlightAware Transoceanic
Mon 04:59:00 PM 51.1823 -141.3212 102° East 513 590 37,000  Level FlightAware Transoceanic
Mon 05:00:00 PM 51.1529 -141.1003 102° East 513 590 37,000  Level FlightAware Transoceanic
Mon 05:01:00 PM 51.1232 -140.8796 102° East 513 590 37,000  Level FlightAware Transoceanic
Mon 05:02:00 PM 51.0927 -140.6696 102° East 522 601 37,000  Level FlightAware Transoceanic
Mon 05:03:00 PM 51.0622 -140.4461 102° East 522 601 37,000  Level FlightAware Transoceanic
Mon 05:04:00 PM 51.0313 -140.2229 103° East 522 601 37,000  Level FlightAware Transoceanic
Mon 05:05:00 PM 51.0000 -140.0000 115° Southeast 522 601 37,000  Level FlightAware Transoceanic
Mon 05:05:15 PM 51.0000 -140.0000 115° Southeast 526 605 37,000  Level Oakland Oceanic (ODAPS)
Mon 05:06:00 PM 50.9360 -139.7863 116° Southeast 522 601 37,000  Level FlightAware Transoceanic
Mon 05:07:00 PM 50.8716 -139.5732 116° Southeast 522 601 37,000  Level FlightAware Transoceanic
Mon 05:08:00 PM 50.8069 -139.3607 116° Southeast 522 601 37,000  Level FlightAware Transoceanic
Mon 05:09:00 PM 50.7417 -139.1488 116° Southeast 522 601 37,000  Level FlightAware Transoceanic
Mon 05:09:53 PM 50.6833 -138.9833 116° Southeast 530 610 37,000  Level Oakland Oceanic (ODAPS)
Mon 05:10:00 PM 50.6762 -138.9374 116° Southeast 522 601 37,000  Level FlightAware Transoceanic
Mon 05:11:00 PM 50.6195 -138.7561 116° Southeast 526 605 37,000  Level FlightAware Transoceanic
Mon 05:12:00 PM 50.5548 -138.5507 116° Southeast 526 605 37,000  Level FlightAware Transoceanic
Mon 05:13:00 PM 50.4898 -138.3459 117° Southeast 526 605 37,000  Level FlightAware Transoceanic
Mon 05:14:00 PM 50.4244 -138.1417 117° Southeast 526 605 37,000  Level FlightAware Transoceanic
Mon 05:15:00 PM 50.3586 -137.9381 117° Southeast 526 605 37,000  Level FlightAware Transoceanic
Mon 05:16:00 PM 50.2815 -137.7198 117° Southeast 530 610 37,000  Level FlightAware Transoceanic
Mon 05:17:00 PM 50.2132 -137.5113 117° Southeast 530 610 37,000  Level FlightAware Transoceanic
Mon 05:18:00 PM 50.1445 -137.3035 117° Southeast 530 610 37,000  Level FlightAware Transoceanic
Mon 05:19:00 PM 50.0755 -137.0961 118° Southeast 530 610 37,000  Level FlightAware Transoceanic
Mon 05:20:00 PM 50.0061 -136.8895 118° Southeast 530 610 37,000  Level FlightAware Transoceanic
Mon 05:21:00 PM 49.9363 -136.6833 118° Southeast 530 610 37,000  Level FlightAware Transoceanic
Mon 05:22:00 PM 49.8661 -136.4778 118° Southeast 530 610 37,000  Level FlightAware Transoceanic
Mon 05:23:00 PM 49.7956 -136.2729 118° Southeast 530 610 37,000  Level FlightAware Transoceanic
Mon 05:23:44 PM 49.7667 -136.1833 118° Southeast 531 611 37,000  Level Oakland Oceanic (ODAPS)
Mon 05:24:00 PM 49.7248 -136.0686 118° Southeast 530 610 37,000  Level FlightAware Transoceanic
Mon 05:25:00 PM 49.6536 -135.8649 118° Southeast 530 610 37,000  Level FlightAware Transoceanic
Mon 05:26:00 PM 49.5820 -135.6618 119° Southeast 530 610 37,000  Level FlightAware Transoceanic
Mon 05:27:00 PM 49.5101 -135.4593 119° Southeast 530 610 37,000  Level FlightAware Transoceanic
Mon 05:28:00 PM 49.4378 -135.2574 119° Southeast 530 610 37,000  Level FlightAware Transoceanic
Mon 05:29:00 PM 49.3651 -135.0560 119° Southeast 530 610 37,000  Level FlightAware Transoceanic
Mon 05:30:00 PM 49.2709 -134.7931 119° Southeast 531 611 37,000  Level FlightAware Transoceanic
Mon 05:31:00 PM 49.1987 -134.5968 119° Southeast 531 611 37,000  Level FlightAware Transoceanic
Mon 05:32:00 PM 49.1262 -134.4010 120° Southeast 531 611 37,000  Level FlightAware Transoceanic
Mon 05:33:00 PM 49.0534 -134.2059 120° Southeast 531 611 37,000  Level FlightAware Transoceanic
Mon 05:34:00 PM 48.9802 -134.0113 120° Southeast 531 611 37,000  Level FlightAware Transoceanic
Mon 05:35:00 PM 48.9067 -133.8172 120° Southeast 531 611 37,000  Level FlightAware Transoceanic
Mon 05:36:00 PM 48.8329 -133.6238 120° Southeast 531 611 37,000  Level FlightAware Transoceanic
Mon 05:37:00 PM 48.7588 -133.4309 120° Southeast 531 611 37,000  Level FlightAware Transoceanic
Mon 05:37:37 PM 48.7833 -133.4833 120° Southeast 530 610 37,000  Level Oakland Oceanic (ODAPS)
Mon 05:38:00 PM 48.6843 -133.2386 120° Southeast 531 611 37,000  Level FlightAware Transoceanic
Mon 05:39:00 PM 48.6095 -133.0469 121° Southeast 531 611 37,000  Level FlightAware Transoceanic
Mon 05:40:00 PM 48.5344 -132.8557 121° Southeast 531 611 37,000  Level FlightAware Transoceanic
Mon 05:41:00 PM 48.4590 -132.6651 121° Southeast 531 611 37,000  Level FlightAware Transoceanic
Mon 05:42:00 PM 48.3833 -132.4751 121° Southeast 531 611 37,000  Level FlightAware Transoceanic
Mon 05:43:00 PM 48.3072 -132.2856 121° Southeast 531 611 37,000  Level FlightAware Transoceanic
Mon 05:44:00 PM 48.2887 -132.2355 121° Southeast 530 610 37,000  Level FlightAware Transoceanic
Mon 05:44:15 PM 48.2167 -132.2333 104° East 570 656 37,000  Level Vancouver Center
Mon 05:45:00 PM 48.2169 -132.0592 122° Southeast 530 610 37,000  Level FlightAware Transoceanic
Mon 05:45:15 PM 48.1500 -132.0333 116° Southeast 500 575 37,000  Level Vancouver Center
Mon 05:46:00 PM 48.1449 -131.8834 122° Southeast 530 610 37,000  Level FlightAware Transoceanic
Mon 05:46:14 PM 48.0833 -131.8500 119° Southeast 530 610 37,000  Level Vancouver Center
Mon 05:47:00 PM 48.0726 -131.7081 122° Southeast 530 610 37,000  Level FlightAware Transoceanic
Mon 05:47:14 PM 48.0167 -131.6667 118° Southeast 540 621 37,000  Level Vancouver Center
Mon 05:48:00 PM 48.0000 -131.5333 104° East 530 610 37,000  Level FlightAware Transoceanic
Mon 05:49:00 PM 47.9640 -131.3114 104° East 530 610 37,000  Level FlightAware Transoceanic
Mon 05:49:00 PM 47.9594 -131.2968 104° East  Level FlightAware Approximate
Mon 05:50:37 PM 47.8667 -130.9667 104° East 560 644 37,000  Level Vancouver Center
Mon 05:51:37 PM 47.8333 -130.7833 105° East 530 610 37,000  Level Vancouver Center
Mon 05:52:37 PM 47.7833 -130.5667 109° East 540 621 37,000  Level Vancouver Center
Mon 05:53:37 PM 47.7667 -130.3500 96° East 520 598 37,000  Level Vancouver Center
Mon 05:54:37 PM 47.7333 -130.1333 103° East 520 598 37,000  Level Vancouver Center
Mon 05:55:37 PM 47.6833 -129.9167 109° East 520 598 37,000  Level Vancouver Center
Mon 05:56:23 PM 47.7000 -129.7667 152° Southeast 542 624 37,000  Level Oakland Oceanic (ODAPS)
Mon 05:57:37 PM 47.4667 -129.6500 152° Southeast 550 633 37,000  Level Vancouver Center
Mon 05:58:37 PM 47.3500 -129.5667 154° Southeast 540 621 37,000  Level Vancouver Center
Mon 05:59:37 PM 47.2000 -129.4500 152° Southeast 550 633 37,000  Level Vancouver Center
Mon 06:00:37 PM 47.0667 -129.3333 149° Southeast 540 621 37,000 -50 Level Vancouver Center
Mon 06:01:37 PM 46.9500 -129.2500 154° Southeast 540 621 36,900 -50 Descending Vancouver Center
Mon 06:02:37 PM 46.8167 -129.1333 149° Southeast 530 610 36,900  Level Vancouver Center
Mon 06:03:37 PM 46.6833 -129.0500 157° South 530 610 36,900  Level Vancouver Center
Mon 06:04:37 PM 46.5500 -128.9500 153° Southeast 540 621 36,900 63 Level Vancouver Center
Mon 06:05:12 PM 46.4833 -128.8333 152° Southeast 537 618 37,000 100 Climbing Oakland Oceanic (ODAPS)
Mon 06:05:37 PM 46.4167 -128.8333 152° Southeast 540 621 37,000  Level Vancouver Center
Mon 06:10:12 PM 45.8250 -128.3620 153° Southeast 534 615 37,000  Level FlightAware ADS-B
Mon 06:10:52 PM 45.7320 -128.2940 152° Southeast 533 613 37,000  Level FlightAware ADS-B
Mon 06:11:37 PM 45.6300 -128.2200 153° Southeast 532 612 37,000  Level FlightAware ADS-B
Mon 06:12:17 PM 45.5440 -128.1560 152° Southeast 531 611 37,000  Level FlightAware ADS-B
Mon 06:13:02 PM 45.4470 -128.0860 153° Southeast 531 611 37,000  Level FlightAware ADS-B
Mon 06:13:42 PM 45.3590 -128.0220 153° Southeast 531 611 37,000  Level FlightAware ADS-B
Mon 06:14:22 PM 45.2710 -127.9580 153° Southeast 530 610 37,000  Level FlightAware ADS-B
Mon 06:15:07 PM 45.1730 -127.8870 153° Southeast 529 609 37,000  Level FlightAware ADS-B
Mon 06:15:47 PM 45.0840 -127.8230 153° Southeast 528 608 37,000  Level FlightAware ADS-B
Mon 06:16:27 PM 44.9980 -127.7620 153° Southeast 528 608 37,000  Level FlightAware ADS-B
Mon 06:17:12 PM 44.9000 -127.6930 153° Southeast 526 605 37,000  Level FlightAware ADS-B
Mon 06:17:52 PM 44.8130 -127.6310 153° Southeast 525 604 37,000  Level FlightAware ADS-B
Mon 06:18:37 PM 44.7190 -127.5640 153° Southeast 524 603 37,000  Level FlightAware ADS-B
Mon 06:19:14 PM 44.6667 -127.5000 153° Southeast 525 604 37,000  Level Oakland Oceanic (ODAPS)
Mon 06:19:17 PM 44.6330 -127.5030 153° Southeast 523 602 37,000  Level FlightAware ADS-B
Mon 06:19:57 PM 44.5550 -127.4480 153° Southeast 523 602 37,000  Level FlightAware ADS-B
Mon 06:20:37 PM 44.4820 -127.3950 153° Southeast 523 602 37,000  Level FlightAware ADS-B
Mon 06:21:17 PM 44.4090 -127.3430 153° Southeast 523 602 37,000  Level FlightAware ADS-B
Mon 06:21:57 PM 44.2940 -127.2660 154° Southeast 521 600 37,000  Level FlightAware ADS-B
Mon 06:22:47 PM 44.1790 -127.1860 153° Southeast 520 598 37,000  Level FlightAware ADS-B
Mon 06:23:32 PM 44.0930 -127.1250 153° Southeast 520 598 37,000  Level FlightAware ADS-B
Mon 06:24:07 PM 44.0090 -127.0690 154° Southeast 517 595 37,000  Level FlightAware ADS-B
Mon 06:24:52 PM 43.9260 -127.0100 153° Southeast 517 595 37,000  Level FlightAware ADS-B
Mon 06:27:00 PM 43.6857 -126.7632 143° Southeast  Level Estimated
Mon 06:28:00 PM 43.5728 -126.6482 144° Southeast  Level Estimated
Mon 06:28:32 PM 43.4570 -126.6910 144° Southeast 514 592 37,000  Level FlightAware ADS-B
Mon 06:29:12 PM 43.3850 -126.6400 153° Southeast 514 592 37,000  Level FlightAware ADS-B
Mon 06:29:52 PM 43.3130 -126.5900 153° Southeast 514 592 37,000  Level FlightAware ADS-B
Mon 06:30:42 PM 43.2230 -126.5270 153° Southeast 514 592 37,000  Level FlightAware ADS-B
Mon 06:31:22 PM 43.1510 -126.4760 153° Southeast 514 592 37,000  Level FlightAware ADS-B
Mon 06:32:02 PM 43.0790 -126.4260 153° Southeast 514 592 37,000  Level FlightAware ADS-B
Mon 06:32:42 PM 43.0070 -126.3760 153° Southeast 514 592 37,000  Level FlightAware ADS-B
Mon 06:35:00 PM 42.7597 -126.0935 140° Southeast  Level FlightAware Approximate
Mon 06:36:00 PM 42.6520 -125.9713 140° Southeast  Level FlightAware Approximate
Mon 06:37:00 PM 42.5441 -125.8496 140° Southeast  Level FlightAware Approximate
Mon 06:37:22 PM 42.5030 -126.0260 140° Southeast 514 592 37,000  Level FlightAware ADS-B
Mon 06:40:00 PM 42.2092 -125.7233 143° Southeast  Level Estimated
Mon 06:40:47 PM 41.9867 -125.3775 143° Southeast 517 595 37,000  Level Oakland Center
Mon 06:41:00 PM 42.0974 -125.6091 143° Southeast  Level Estimated
Mon 06:41:48 PM 41.8664 -125.2711 147° Southeast 518 596 37,000  Level Oakland Center
Mon 06:42:00 PM 41.9855 -125.4953 143° Southeast  Level Estimated
Mon 06:42:49 PM 41.7464 -125.1683 147° Southeast 513 590 37,000  Level Oakland Center
Mon 06:43:00 PM 41.8736 -125.3819 143° Southeast  Level Estimated
Mon 06:43:50 PM 41.6247 -125.0639 147° Southeast 518 596 36,900  Level Oakland Center
Mon 06:44:00 PM 41.7614 -125.2688 143° Southeast  Level Estimated
Mon 06:44:51 PM 41.5039 -124.9611 147° Southeast 516 594 36,900  Level Oakland Center
Mon 06:45:00 PM 41.6492 -125.1562 143° Southeast  Level Estimated
Mon 06:45:58 PM 41.3556 -124.8367 148° Southeast 516 594 36,900  Level Seattle Center
Mon 06:46:00 PM 41.5369 -125.0440 143° Southeast  Level Estimated
Mon 06:46:59 PM 41.2386 -124.7353 147° Southeast 504 580 36,900  Level Seattle Center
Mon 06:52:57 PM 40.5070 -124.1580 147° Southeast 499 574 37,000 15 Climbing FlightAware ADS-B
Mon 06:53:37 PM 40.4320 -124.1110 154° Southeast 499 574 37,000  Level FlightAware ADS-B
Mon 06:54:22 PM 40.3340 -124.0540 156° South 493 567 37,000  Level FlightAware ADS-B
Mon 06:55:02 PM 40.2470 -124.0020 155° Southeast 499 574 37,000  Level FlightAware ADS-B
Mon 06:55:47 PM 40.1470 -123.9420 155° Southeast 499 574 37,000  Level FlightAware ADS-B
Mon 06:56:22 PM 40.0770 -123.9000 155° Southeast 499 574 37,000  Level FlightAware ADS-B
Mon 06:57:07 PM 39.9830 -123.8440 155° Southeast 498 573 37,000  Level FlightAware ADS-B
Mon 06:57:52 PM 39.8910 -123.7890 155° Southeast 497 572 37,000  Level FlightAware ADS-B
Mon 06:58:32 PM 39.8100 -123.7410 156° South 497 572 37,000  Level FlightAware ADS-B
Mon 06:59:17 PM 39.7090 -123.6810 155° Southeast 496 571 37,000  Level FlightAware ADS-B
Mon 06:59:57 PM 39.6220 -123.6300 156° South 496 571 37,000  Level FlightAware ADS-B
Mon 07:00:42 PM 39.5250 -123.5730 156° South 495 570 37,000  Level FlightAware ADS-B
Mon 07:01:22 PM 39.4430 -123.5250 156° South 494 568 37,000  Level FlightAware ADS-B
Mon 07:02:02 PM 39.3580 -123.4750 156° South 492 566 37,000  Level FlightAware ADS-B
Mon 07:02:47 PM 39.2710 -123.4240 156° South 493 567 37,000  Level FlightAware ADS-B
Mon 07:03:27 PM 39.1840 -123.3740 156° South 491 565 37,000  Level FlightAware ADS-B
Mon 07:04:12 PM 39.0890 -123.3190 156° South 492 566 37,000  Level FlightAware ADS-B
Mon 07:04:52 PM 39.0080 -123.2630 152° Southeast 494 568 37,000  Level FlightAware ADS-B
Mon 07:05:32 PM 38.9300 -123.2010 148° Southeast 494 568 37,000  Level FlightAware ADS-B
Mon 07:06:17 PM 38.8470 -123.1330 147° Southeast 494 568 37,000  Level FlightAware ADS-B
Mon 07:06:57 PM 38.7680 -123.0700 148° Southeast 493 567 37,000  Level FlightAware ADS-B
Mon 07:07:42 PM 38.6820 -123.0010 148° Southeast 494 568 37,000  Level FlightAware ADS-B
Mon 07:08:22 PM 38.6020 -122.9370 148° Southeast 494 568 37,000  Level FlightAware ADS-B
Mon 07:09:02 PM 38.5240 -122.8750 148° Southeast 494 568 37,000  Level FlightAware ADS-B
Mon 07:09:47 PM 38.4400 -122.8080 148° Southeast 495 570 37,000  Level FlightAware ADS-B
Mon 07:10:27 PM 38.3610 -122.7450 148° Southeast 495 570 37,000  Level FlightAware ADS-B
Mon 07:11:12 PM 38.2730 -122.6760 148° Southeast 496 571 37,000  Level FlightAware ADS-B
Mon 07:11:52 PM 38.1940 -122.6140 148° Southeast 496 571 37,000  Level FlightAware ADS-B
Mon 07:12:32 PM 38.1190 -122.5430 143° Southeast 497 572 37,000  Level FlightAware ADS-B
Mon 07:13:17 PM 38.0380 -122.4700 145° Southeast 495 570 37,000  Level FlightAware ADS-B
Mon 07:13:57 PM 37.9620 -122.4070 147° Southeast 494 568 37,000  Level FlightAware ADS-B
Mon 07:14:37 PM 37.8850 -122.3470 148° Southeast 494 568 37,000  Level FlightAware ADS-B
Mon 07:15:22 PM 37.7950 -122.2770 148° Southeast 492 566 37,000  Level FlightAware ADS-B
Mon 07:16:02 PM 37.7200 -122.2140 146° Southeast 493 567 37,000  Level FlightAware ADS-B
Mon 07:16:47 PM 37.6420 -122.1310 140° Southeast 495 570 37,000  Level FlightAware ADS-B
Mon 07:17:27 PM 37.5730 -122.0530 138° Southeast 494 568 37,000  Level FlightAware ADS-B
Mon 07:18:07 PM 37.5090 -121.9810 138° Southeast 495 570 37,000  Level FlightAware ADS-B
Mon 07:18:52 PM 37.4280 -121.8910 139° Southeast 495 570 37,000  Level FlightAware ADS-B
Mon 07:19:32 PM 37.3580 -121.8140 139° Southeast 495 570 37,000  Level FlightAware ADS-B
Mon 07:20:17 PM 37.2820 -121.7300 139° Southeast 497 572 37,000  Level FlightAware ADS-B
Mon 07:20:57 PM 37.2140 -121.6550 139° Southeast 498 573 37,000  Level FlightAware ADS-B
Mon 07:21:37 PM 37.1440 -121.5780 139° Southeast 498 573 37,000  Level FlightAware ADS-B
Mon 07:22:22 PM 37.0650 -121.4910 139° Southeast 498 573 37,000  Level FlightAware ADS-B
Mon 07:22:57 PM 37.0070 -121.4280 139° Southeast 498 573 37,000  Level FlightAware ADS-B
Mon 07:23:47 PM 36.9220 -121.3360 139° Southeast 499 574 37,000  Level FlightAware ADS-B
Mon 07:24:27 PM 36.8540 -121.2610 139° Southeast 498 573 37,000  Level FlightAware ADS-B
Mon 07:25:07 PM 36.7850 -121.1870 139° Southeast 498 573 37,000  Level FlightAware ADS-B
Mon 07:25:52 PM 36.7070 -121.1030 139° Southeast 500 575 37,000  Level FlightAware ADS-B
Mon 07:26:32 PM 36.6420 -121.0320 139° Southeast 499 574 37,000  Level FlightAware ADS-B
Mon 07:27:12 PM 36.5720 -120.9570 139° Southeast 499 574 37,000  Level FlightAware ADS-B
Mon 07:27:57 PM 36.4830 -120.8620 139° Southeast 497 572 37,000  Level FlightAware ADS-B
Mon 07:28:42 PM 36.4030 -120.7760 139° Southeast 499 574 37,000  Level FlightAware ADS-B
Mon 07:29:22 PM 36.3330 -120.7010 139° Southeast 500 575 37,000  Level FlightAware ADS-B
Mon 07:30:02 PM 36.2630 -120.6260 139° Southeast 500 575 37,000  Level FlightAware ADS-B
Mon 07:30:47 PM 36.1880 -120.5460 139° Southeast 501 577 37,000  Level FlightAware ADS-B
Mon 07:31:27 PM 36.1160 -120.4700 140° Southeast 502 578 37,000  Level FlightAware ADS-B
Mon 07:32:12 PM 36.0350 -120.3850 140° Southeast 504 580 37,000  Level FlightAware ADS-B
Mon 07:32:52 PM 35.9650 -120.3120 140° Southeast 505 581 37,000  Level FlightAware ADS-B
Mon 07:33:32 PM 35.8930 -120.2360 139° Southeast 506 582 37,000  Level FlightAware ADS-B
Mon 07:34:17 PM 35.8140 -120.1530 140° Southeast 505 581 37,000  Level FlightAware ADS-B
Mon 07:34:57 PM 35.7390 -120.0750 140° Southeast 506 582 37,000  Level FlightAware ADS-B
Mon 07:35:42 PM 35.6630 -119.9960 140° Southeast 506 582 37,000  Level FlightAware ADS-B
Mon 07:36:22 PM 35.5880 -119.9270 143° Southeast 505 581 37,000  Level FlightAware ADS-B
Mon 07:36:57 PM 35.5330 -119.8800 145° Southeast 500 575 37,000  Level FlightAware ADS-B
Mon 07:37:47 PM 35.4230 -119.7850 145° Southeast 508 585 37,000  Level FlightAware ADS-B
Mon 07:38:27 PM 35.3450 -119.7180 145° Southeast 506 582 37,000 -847 Level FlightAware ADS-B
Mon 07:39:12 PM 35.2620 -119.6460 145° Southeast 492 566 35,800 -2,259 Descending FlightAware ADS-B
Mon 07:39:52 PM 35.1890 -119.5840 145° Southeast 498 573 33,800 -3,000 Descending FlightAware ADS-B
Mon 07:40:32 PM 35.1100 -119.5170 145° Southeast 496 571 31,800 -2,760 Descending FlightAware ADS-B
Mon 07:41:32 PM 35.0030 -119.4260 145° Southeast 492 566 29,200 -2,337 Descending FlightAware ADS-B
Mon 07:42:07 PM 34.9470 -119.3770 144° Southeast 478 550 28,100 -2,250 Descending FlightAware ADS-B
Mon 07:42:52 PM 34.8570 -119.3010 145° Southeast 474 545 26,200 -2,541 Descending FlightAware ADS-B
Mon 07:43:32 PM 34.7840 -119.2400 146° Southeast 469 540 24,500 -2,329 Descending FlightAware ADS-B
Mon 07:44:17 PM 34.7090 -119.1770 145° Southeast 454 522 22,900 -2,067 Descending FlightAware ADS-B
Mon 07:45:02 PM 34.6230 -119.1040 145° Southeast 436 502 21,400 -2,047 Descending FlightAware ADS-B
Mon 07:45:42 PM 34.5590 -119.0500 145° Southeast 433 498 20,000 -2,250 Descending FlightAware ADS-B
Mon 07:46:22 PM 34.4930 -118.9950 146° Southeast 415 478 18,400 -2,400 Descending FlightAware ADS-B
Mon 07:47:02 PM 34.4290 -118.9420 146° Southeast 408 470 16,800 -2,259 Descending FlightAware ADS-B
Mon 07:47:47 PM 34.3610 -118.8880 147° Southeast 388 447 15,200 -2,118 Descending FlightAware ADS-B
Mon 07:48:27 PM 34.2910 -118.8560 159° South 387 445 13,800 -2,047 Descending FlightAware ADS-B
Mon 07:49:12 PM 34.2140 -118.8290 164° South 372 428 12,300 -1,575 Descending FlightAware ADS-B
Mon 07:49:47 PM 34.1560 -118.8080 163° South 352 405 11,700 -825 Descending FlightAware ADS-B
Mon 07:50:32 PM 34.0930 -118.7730 155° Southeast 335 386 11,200 -700 Descending FlightAware ADS-B
Mon 07:50:47 PM 34.0790 -118.7540 132° Southeast 328 377 11,000 -900 Descending FlightAware ADS-B
Mon 07:51:32 PM 34.0570 -118.6770 109° East 308 354 10,300 -1,029 Descending FlightAware ADS-B
Mon 07:51:57 PM 34.0480 -118.6350 104° East 304 350 9,800 -1,309 Descending FlightAware ADS-B
Mon 07:52:27 PM 34.0380 -118.5860 104° East 303 349 9,100 -1,309 Descending FlightAware ADS-B
Mon 07:52:52 PM 34.0300 -118.5490 105° East 300 345 8,600 -1,200 Descending FlightAware ADS-B
Mon 07:53:22 PM 34.0190 -118.4970 104° East 293 337 8,000 -1,100 Descending FlightAware ADS-B
Mon 07:53:52 PM 34.0120 -118.4530 101° East 288 331 7,500 -1,091 Descending FlightAware ADS-B
Mon 07:54:17 PM 34.0170 -118.4100 82° East 275 316 7,000 -960 Descending FlightAware ADS-B
Mon 07:54:42 PM 34.0220 -118.3750 80° East 262 302 6,700 -655 Descending FlightAware ADS-B
Mon 07:55:12 PM 34.0280 -118.3330 80° East 244 281 6,400 -800 Descending FlightAware ADS-B
Mon 07:55:42 PM 34.0340 -118.2950 79° East 236 272 5,900 -1,309 Descending FlightAware ADS-B
Mon 07:56:07 PM 34.0390 -118.2600 80° East 239 275 5,200 -1,418 Descending FlightAware ADS-B
Mon 07:56:37 PM 34.0330 -118.2220 101° East 223 257 4,600 -1,200 Descending FlightAware ADS-B
Mon 07:56:52 PM 34.0210 -118.2120 145° Southeast 214 246 4,300 -933 Descending FlightAware ADS-B
Mon 07:57:22 PM 33.9980 -118.2190 194° South 193 222 3,900 -1,100 Descending FlightAware ADS-B
Mon 07:57:52 PM 33.9800 -118.2470 232° Southwest 188 216 3,200 -1,527 Descending FlightAware ADS-B
Mon 07:58:17 PM 33.9680 -118.2690 237° Southwest 189 217 2,500 -1,333 Descending FlightAware ADS-B
Mon 07:58:37 PM 33.9650 -118.2870 259° West 189 217 2,200 -771 Descending FlightAware ADS-B
Mon 07:59:27 PM 33.9600 -118.3260 261° West 159 183 1,600 -525 Descending FlightAware ADS-B
Mon 07:59:57 PM 33.9570 -118.3510 262° West 159 183 1,500 -982 Descending FlightAware ADS-B
Mon 08:00:22 PM 33.9550 -118.3720 263° West 137 158 700 -1,500 Descending FlightAware ADS-B
Mon 08:00:37 PM 33.9540 -118.3830 264° West 135 155 500 -800 Descending FlightAware ADS-B
Mon 08:01:07 PM 33.9520 -118.4020 263° West 133 153 100 -436 Descending FlightAware ADS-B
Mon 08:01:32 PM 33.9500 -118.4190 262° West 133 153 100  Level FlightAware ADS-B

Login

Don't have an account? Register now (free) for customized features, flight alerts, and more!